This is the latest recevied weather packets stored in our database for station/object OH2HCY. If no packets are shown the sender has not sent any weather packets the latest 1 day(s).
| Time | Temp. | Humidity | Pressure | Rain* | Wind** | Luminosity | Snow |
|---|---|---|---|---|---|---|---|
| 1777993935 | 11.11° C | 33% | 1001.4 hPa | - | 3.13 m/s, 280° | - | - |
| 1777993360 | 10.56° C | 34% | 1001.5 hPa | - | 1.79 m/s, 286° | - | - |
| 1777992785 | 10.56° C | 35% | 1001.6 hPa | - | 3.13 m/s, 279° | - | - |
| 1777992250 | 10.56° C | 33% | 1001.4 hPa | - | 4.47 m/s, 252° | - | - |
| 1777991684 | 10.56° C | 35% | 1001.5 hPa | - | 4.02 m/s, 268° | - | - |
| 1777991130 | 11.11° C | 35% | 1001.4 hPa | - | 2.68 m/s, 282° | - | - |
| 1777990610 | 10.56° C | 37% | 1001.7 hPa | - | 2.68 m/s, 277° | - | - |
| 1777990090 | 10.56° C | 35% | 1001.5 hPa | - | 3.13 m/s, 264° | - | - |
| 1777989555 | 11.11° C | 34% | 1001.2 hPa | - | 3.13 m/s, 255° | - | - |
| 1777988999 | 10.56° C | 35% | 1001.5 hPa | - | 3.58 m/s, 262° | - | - |
| 1777988440 | 11.11° C | 34% | 1001.1 hPa | - | 3.58 m/s, 262° | - | - |
| 1777987920 | 10.56° C | 37% | 1001.1 hPa | - | 3.58 m/s, 264° | - | - |
| 1777987380 | 10.56° C | 37% | 1001.2 hPa | - | 2.68 m/s, 277° | - | - |
| 1777986850 | 10.56° C | 39% | 1001.2 hPa | - | 3.13 m/s, 293° | - | - |
| 1777986312 | 10.56° C | 39% | 1001.2 hPa | - | 2.24 m/s, 303° | - | - |
| 1777985784 | 10° C | 40% | 1001.5 hPa | - | 3.13 m/s, 312° | - | - |
| 1777985235 | 10° C | 42% | 1001.4 hPa | - | 4.02 m/s, 280° | - | - |
| 1777984680 | 10.56° C | 42% | 1001.2 hPa | - | 2.24 m/s, 314° | - | - |
| 1777984180 | 10° C | 42% | 1001.2 hPa | - | 2.68 m/s, 292° | - | - |
| 1777983610 | 10° C | 44% | 1001.3 hPa | - | 3.13 m/s, 272° | - | - |
| 1777983043 | 10° C | 45% | 1001.4 hPa | - | 3.58 m/s, 296° | - | - |
| 1777982484 | 10° C | 47% | 1001 hPa | - | 4.47 m/s, 310° | - | - |
| 1777981970 | 10.56° C | 44% | 1000.6 hPa | - | 3.58 m/s, 291° | - | - |
| 1777981440 | 10.56° C | 40% | 1000.4 hPa | - | 4.47 m/s, 272° | - | - |
| 1777980895 | 10.56° C | 43% | 1000.4 hPa | - | 3.58 m/s, 281° | - | - |
* Rain since midnight (hover to see other rain measurements)
** Current wind speed in m/s (hover to see current wind gust speed)